Time;durP1;ratioP1;P1;durP2;ratioP2;P2;SDS_P1;SDS_P2;PMS_P1;PMS_P2;Temp;Humidity;BMP_temperature;BMP_pressure;BME280_temperature;BME280_humidity;BME280_pressure;Samples;Min_cycle;Max_cycle;Signal;HPM_P1;HPM_P2
2022/06/10 00:00:42;;;;;;;2.08;0.90;;;;;;;24.37;50.24;100687.38;5054287;28;20045;-74
2022/06/10 00:03:11;;;;;;;2.80;1.10;;;;;;;24.36;49.94;100683.81;5054053;28;20409;-74
2022/06/10 00:05:41;;;;;;;2.60;1.30;;;;;;;24.37;49.90;100688.22;5054601;28;20048;-74
2022/06/10 00:08:11;;;;;;;3.38;0.90;;;;;;;24.38;50.01;100691.81;5056579;28;20052;-73
2022/06/10 00:10:39;;;;;;;2.08;0.93;;;;;;;24.38;50.05;100699.91;5055852;28;20461;-74
2022/06/10 00:13:07;;;;;;;2.97;0.98;;;;;;;24.38;50.11;100697.22;5055142;28;20048;-74
2022/06/10 00:15:35;;;;;;;3.53;1.00;;;;;;;24.39;50.26;100699.78;5055530;28;20052;-74
2022/06/10 00:18:02;;;;;;;3.75;0.80;;;;;;;24.39;49.91;100707.03;5055247;28;20056;-75
2022/06/10 00:20:40;;;;;;;1.63;0.80;;;;;;;24.40;50.31;100706.88;5055956;28;20045;-74
2022/06/10 00:23:08;;;;;;;3.97;0.90;;;;;;;24.39;50.28;100698.94;5054826;28;20068;-74
2022/06/10 00:25:37;;;;;;;2.45;0.93;;;;;;;24.38;50.10;100695.34;5054165;28;20064;-74
2022/06/10 00:28:06;;;;;;;4.35;1.25;;;;;;;24.41;50.31;100699.59;5055263;28;20045;-74
2022/06/10 00:30:35;;;;;;;1.73;0.80;;;;;;;24.40;50.13;100703.31;5053957;28;20052;-74
2022/06/10 00:33:03;;;;;;;2.10;0.80;;;;;;;24.40;50.25;100701.44;5054448;28;20048;-74
2022/06/10 00:35:32;;;;;;;1.30;0.90;;;;;;;24.41;50.38;100705.00;5055605;28;20049;-74
2022/06/10 00:38:00;;;;;;;2.10;0.80;;;;;;;24.40;50.33;100698.75;5054807;28;20048;-74
2022/06/10 00:40:37;;;;;;;1.20;0.70;;;;;;;24.41;50.36;100696.88;5054642;28;20045;-74
2022/06/10 00:43:05;;;;;;;2.30;0.95;;;;;;;24.41;50.26;100689.59;5055032;28;20063;-73
2022/06/10 00:46:00;;;;;;;3.05;1.15;;;;;;;24.41;50.36;100694.19;5055516;28;20052;-74
2022/06/10 00:48:49;;;;;;;4.68;0.93;;;;;;;24.41;50.25;100694.19;5054238;28;20048;-74
2022/06/10 00:51:24;;;;;;;2.50;0.90;;;;;;;24.41;50.35;100696.88;5053152;28;20061;-74
2022/06/10 00:54:00;;;;;;;2.53;1.23;;;;;;;24.42;50.38;100699.41;5055053;28;20033;-73
2022/06/10 00:56:29;;;;;;;3.85;1.10;;;;;;;24.42;50.21;100695.84;5054900;28;20051;-74
2022/06/10 00:59:12;;;;;;;2.00;0.88;;;;;;;24.42;50.41;100685.88;5054656;28;20053;-75
2022/06/10 01:01:40;;;;;;;;;;;;;;;24.42;50.26;100685.03;5055743;28;20053;-74
2022/06/10 01:04:09;;;;;;;1.70;0.90;;;;;;;24.41;50.44;100681.50;5053611;28;20296;-73
2022/06/10 01:06:36;;;;;;;2.40;0.88;;;;;;;24.42;50.09;100685.88;5054378;28;20045;-74
2022/06/10 01:09:03;;;;;;;3.30;1.08;;;;;;;24.42;50.26;100688.59;5053183;28;20059;-73
2022/06/10 01:12:05;;;;;;;3.13;1.10;;;;;;;24.42;50.29;100685.03;5053302;28;20052;-74
2022/06/10 01:15:15;;;;;;;2.10;1.20;;;;;;;24.42;50.27;100690.44;5036488;28;20052;-74
2022/06/10 01:17:45;;;;;;;2.25;0.82;;;;;;;24.41;50.24;100689.59;5032408;28;20053;-74
2022/06/10 01:20:21;;;;;;;3.80;0.90;;;;;;;24.42;50.18;100695.84;5032151;28;20536;-73
2022/06/10 01:23:16;;;;;;;3.05;0.90;;;;;;;24.42;50.12;100696.69;5032572;28;20054;-74
2022/06/10 01:26:06;;;;;;;4.03;1.27;;;;;;;24.43;50.19;100703.00;5015710;28;20053;-74
2022/06/10 01:28:52;;;;;;;4.03;1.23;;;;;;;24.43;50.00;100708.41;5016305;28;20057;-74
2022/06/10 01:31:31;;;;;;;3.28;0.90;;;;;;;24.44;50.19;100709.25;5032497;28;20053;-74
2022/06/10 01:34:26;;;;;;;5.03;1.15;;;;;;;24.44;50.12;100714.66;5032501;28;20049;-74
2022/06/10 01:37:06;;;;;;;5.10;0.90;;;;;;;24.43;50.30;100719.22;5014761;28;20041;-74
2022/06/10 01:39:39;;;;;;;2.67;0.80;;;;;;;24.43;50.02;100719.22;5032023;28;20088;-74
2022/06/10 01:42:36;;;;;;;2.17;0.82;;;;;;;24.43;49.77;100708.41;5031403;28;20057;-74
2022/06/10 01:45:32;;;;;;;2.70;1.20;;;;;;;24.44;49.84;100715.50;5032370;28;20046;-73
2022/06/10 01:48:19;;;;;;;1.90;0.85;;;;;;;24.42;49.68;100722.91;5015981;28;20084;-74
2022/06/10 01:51:17;;;;;;;4.00;0.93;;;;;;;24.44;49.98;100725.47;5033886;28;20437;-74
2022/06/10 01:54:00;;;;;;;6.05;0.93;;;;;;;24.42;49.95;100718.34;5054053;28;20060;-74
2022/06/10 01:56:40;;;;;;;3.22;0.95;;;;;;;24.43;49.79;100719.22;5053353;28;20045;-74
2022/06/10 01:59:23;;;;;;;2.55;0.90;;;;;;;24.43;49.55;100719.22;5053666;28;20388;-73
2022/06/10 02:01:58;;;;;;;1.80;0.80;;;;;;;24.44;49.71;100720.06;5054341;28;20048;-74
2022/06/10 02:04:34;;;;;;;2.55;1.08;;;;;;;24.44;49.77;100725.47;5052733;28;20056;-75
2022/06/10 02:07:07;;;;;;;1.33;0.65;;;;;;;24.43;49.79;100724.63;5054315;28;20048;-75
2022/06/10 02:09:44;;;;;;;2.58;0.88;;;;;;;24.43;49.71;100724.63;5053326;28;20044;-75
2022/06/10 02:12:31;;;;;;;2.22;0.70;;;;;;;24.43;49.51;100727.34;5051288;28;20053;-75
2022/06/10 02:15:02;;;;;;;2.40;1.00;;;;;;;24.42;49.44;100726.47;5053249;28;20041;-75
2022/06/10 02:17:39;;;;;;;3.05;1.35;;;;;;;24.44;49.55;100725.47;5052272;28;20072;-74
2022/06/10 02:20:11;;;;;;;2.40;1.00;;;;;;;24.43;49.63;100727.34;5054009;28;20049;-75
2022/06/10 02:22:43;;;;;;;3.15;1.00;;;;;;;24.44;49.47;100720.91;5052094;28;20436;-75
2022/06/10 02:25:18;;;;;;;1.85;0.70;;;;;;;24.43;49.94;100724.63;5053281;28;20048;-75
2022/06/10 02:27:59;;;;;;;4.13;1.00;;;;;;;24.44;49.81;100720.06;5052686;28;20555;-75
2022/06/10 02:30:43;;;;;;;4.55;0.90;;;;;;;24.43;49.64;100719.22;5052829;28;20044;-74
2022/06/10 02:33:11;;;;;;;2.33;0.90;;;;;;;24.45;49.65;100724.47;5054033;28;20048;-74
2022/06/10 02:36:10;;;;;;;3.55;1.00;;;;;;;24.45;49.71;100727.16;5052960;28;20056;-73
2022/06/10 02:39:04;;;;;;;4.90;1.23;;;;;;;24.45;49.40;100743.41;5053814;28;20507;-74
2022/06/10 02:41:47;;;;;;;2.53;1.33;;;;;;;24.46;49.84;100739.66;5053429;28;20480;-74
2022/06/10 02:44:33;;;;;;;3.13;0.80;;;;;;;24.46;49.82;100740.50;5052004;28;20048;-74
2022/06/10 02:47:03;;;;;;;1.65;0.80;;;;;;;24.46;49.81;100735.09;5052357;28;20049;-75
2022/06/10 02:49:31;;;;;;;6.25;1.10;;;;;;;24.45;49.82;100744.25;5052879;28;20049;-74
2022/06/10 02:51:58;;;;;;;3.72;1.10;;;;;;;24.46;50.12;100751.34;5053707;28;20474;-76
2022/06/10 02:54:28;;;;;;;4.22;1.17;;;;;;;24.47;50.00;100749.47;5053200;28;20053;-75
2022/06/10 02:56:57;;;;;;;4.97;1.10;;;;;;;24.47;49.39;100752.19;5052388;28;20053;-74
2022/06/10 03:02:27;;;;;;;1.10;0.70;;;;;;;24.47;49.26;100757.59;5053390;28;20049;-74
2022/06/10 03:05:09;;;;;;;3.78;0.90;;;;;;;24.46;49.44;100755.91;5053606;28;20041;-74
2022/06/10 03:07:52;;;;;;;1.42;0.75;;;;;;;24.47;49.49;100769.28;5053294;28;20056;-74
2022/06/10 03:10:28;;;;;;;5.82;1.52;;;;;;;24.46;49.24;100759.44;5052359;28;20064;-74
2022/06/10 03:13:01;;;;;;;6.00;1.33;;;;;;;24.45;49.49;100765.03;5051338;28;20070;-75
2022/06/10 03:16:06;;;;;;;4.80;0.90;;;;;;;24.46;49.27;100769.44;5051544;28;20041;-74
2022/06/10 03:18:44;;;;;;;5.10;0.85;;;;;;;24.46;49.44;100775.69;5051754;28;20496;-74
2022/06/10 03:21:49;;;;;;;1.60;0.85;;;;;;;24.45;49.17;100779.41;5053397;28;20060;-74
2022/06/10 03:24:41;;;;;;;1.90;0.80;;;;;;;24.46;49.22;100777.56;5056667;28;20052;-74
2022/06/10 03:27:47;;;;;;;3.45;1.05;;;;;;;24.45;49.09;100786.69;5055056;28;20041;-75
2022/06/10 03:30:27;;;;;;;3.40;1.40;;;;;;;24.44;49.02;100788.56;5054960;28;20049;-74
2022/06/10 03:33:04;;;;;;;2.83;0.90;;;;;;;24.45;49.24;100792.09;5056675;28;20049;-74
2022/06/10 03:35:46;;;;;;;2.13;1.00;;;;;;;24.45;48.87;100794.81;5057116;28;20041;-74
2022/06/10 03:38:14;;;;;;;2.22;0.80;;;;;;;24.45;49.05;100790.25;5056993;28;20049;-74
2022/06/10 03:40:45;;;;;;;1.77;0.75;;;;;;;24.45;48.85;100792.94;5055719;28;20060;-74
2022/06/10 03:43:14;;;;;;;4.47;1.08;;;;;;;24.45;48.66;100798.38;5055424;28;20388;-74
2022/06/10 03:45:45;;;;;;;4.97;1.00;;;;;;;24.45;48.63;100805.63;5055196;28;20037;-73
2022/06/10 03:48:20;;;;;;;2.78;0.90;;;;;;;24.45;48.42;100806.47;5056550;28;20388;-74
2022/06/10 03:50:50;;;;;;;2.10;0.80;;;;;;;24.45;48.40;100806.47;5056058;28;20064;-75
2022/06/10 03:53:22;;;;;;;1.75;0.90;;;;;;;24.45;48.79;100811.88;5056396;28;20049;-74
2022/06/10 03:55:50;;;;;;;2.40;0.68;;;;;;;24.45;48.69;100809.19;5056036;28;20041;-74
2022/06/10 03:58:18;;;;;;;5.07;1.10;;;;;;;24.45;48.48;100808.34;5056064;28;20053;-73
2022/06/10 04:00:46;;;;;;;2.67;0.95;;;;;;;24.44;48.72;100821.03;5057395;28;20045;-73
2022/06/10 04:03:14;;;;;;;1.10;0.73;;;;;;;24.45;48.62;100824.56;5057275;28;20044;-73
2022/06/10 04:05:42;;;;;;;1.33;0.70;;;;;;;24.44;48.39;100818.31;5056243;28;20051;-73
2022/06/10 04:08:29;;;;;;;1.45;0.80;;;;;;;24.45;48.46;100817.31;5055966;28;20048;-73
2022/06/10 04:10:57;;;;;;;2.97;1.00;;;;;;;24.44;48.30;100815.63;5055838;28;20057;-73
2022/06/10 04:13:24;;;;;;;2.05;1.00;;;;;;;24.44;48.43;100818.31;5054279;28;20053;-74
2022/06/10 04:15:51;;;;;;;3.33;1.00;;;;;;;24.44;48.26;100818.31;5055312;28;20044;-73
2022/06/10 04:18:19;;;;;;;5.20;0.90;;;;;;;24.45;48.40;100830.00;5054048;28;20432;-74
2022/06/10 04:20:46;;;;;;;4.72;0.90;;;;;;;24.44;48.63;100831.00;5055268;28;20385;-74
2022/06/10 04:23:14;;;;;;;3.15;0.98;;;;;;;24.44;48.62;100834.56;5055470;28;20048;-74
2022/06/10 04:25:43;;;;;;;2.80;0.88;;;;;;;24.44;48.78;100834.56;5055727;28;20049;-74
2022/06/10 04:28:12;;;;;;;1.70;0.80;;;;;;;24.44;48.57;100842.69;5055726;28;20052;-74
2022/06/10 04:30:43;;;;;;;2.60;0.90;;;;;;;24.43;48.68;100832.88;5056028;28;20048;-74
2022/06/10 04:33:11;;;;;;;1.40;0.85;;;;;;;24.44;48.33;100837.25;5055744;28;20052;-74
2022/06/10 04:35:41;;;;;;;1.20;0.73;;;;;;;24.42;48.36;100842.81;5053355;28;20116;-74
2022/06/10 04:38:10;;;;;;;3.75;1.05;;;;;;;24.44;48.19;100844.53;5054049;28;20057;-74
2022/06/10 04:40:39;;;;;;;2.03;0.80;;;;;;;24.43;48.46;100838.28;5054550;28;20093;-74
2022/06/10 04:43:07;;;;;;;2.30;0.90;;;;;;;24.44;48.78;100841.84;5053875;28;20409;-74
2022/06/10 04:45:45;;;;;;;1.50;0.70;;;;;;;24.44;48.57;100850.81;5054696;28;20044;-74
2022/06/10 04:48:14;;;;;;;2.67;0.90;;;;;;;24.42;48.28;100848.22;5053309;28;20416;-74
2022/06/10 04:50:42;;;;;;;2.92;0.93;;;;;;;24.42;48.76;100845.53;5053676;28;20052;-74
2022/06/10 04:53:11;;;;;;;2.50;0.90;;;;;;;24.43;48.71;100846.41;5055140;28;20055;-75
2022/06/10 04:55:38;;;;;;;2.75;0.80;;;;;;;24.44;48.69;100849.97;5054966;28;20045;-74
2022/06/10 04:58:06;;;;;;;3.83;1.05;;;;;;;24.42;48.70;100848.22;5054008;28;20044;-74
2022/06/10 05:00:39;;;;;;;1.50;1.00;;;;;;;24.43;48.46;100854.53;5055540;28;20049;-74
2022/06/10 05:03:07;;;;;;;2.88;0.90;;;;;;;24.42;48.69;100861.75;5054288;28;20404;-74
2022/06/10 05:05:35;;;;;;;2.85;0.80;;;;;;;24.44;48.75;100861.63;5053922;28;20041;-74
2022/06/10 05:08:03;;;;;;;1.73;1.00;;;;;;;24.42;48.90;100875.28;5054894;28;20049;-74
2022/06/10 05:10:32;;;;;;;2.00;0.85;;;;;;;24.44;48.75;100869.75;5053323;28;20093;-74
2022/06/10 05:12:59;;;;;;;2.38;0.90;;;;;;;24.44;48.83;100882.44;5054002;28;20053;-74
2022/06/10 05:15:28;;;;;;;2.72;0.90;;;;;;;24.44;48.82;100872.44;5052977;28;20100;-75
2022/06/10 05:17:58;;;;;;;3.08;1.20;;;;;;;24.44;48.99;100875.16;5053928;28;20040;-74
2022/06/10 05:20:40;;;;;;;3.63;0.70;;;;;;;24.44;49.09;100883.28;5054114;28;20045;-74
2022/06/10 05:23:09;;;;;;;2.40;0.80;;;;;;;24.43;49.21;100881.59;5053225;28;20053;-75
2022/06/10 05:25:37;;;;;;;2.65;1.20;;;;;;;24.44;49.06;100877.00;5055205;28;20036;-75
2022/06/10 05:28:06;;;;;;;2.85;1.27;;;;;;;24.44;49.26;100879.72;5054414;28;20049;-74
2022/06/10 05:30:35;;;;;;;1.58;0.80;;;;;;;24.45;49.17;100893.06;5054448;28;20053;-74
2022/06/10 05:33:04;;;;;;;5.85;1.00;;;;;;;24.45;49.27;100894.94;5053837;28;20041;-74
2022/06/10 05:35:31;;;;;;;2.33;0.90;;;;;;;24.44;49.35;100896.81;5054106;28;20068;-74
2022/06/10 05:37:59;;;;;;;2.25;0.90;;;;;;;24.44;49.12;100893.25;5053800;28;20056;-74
2022/06/10 05:40:28;;;;;;;1.85;0.88;;;;;;;24.44;49.16;100899.50;5054397;28;20049;-74
2022/06/10 05:42:56;;;;;;;2.63;1.00;;;;;;;24.45;49.17;100903.06;5053864;28;20071;-74
2022/06/10 05:45:23;;;;;;;2.35;1.10;;;;;;;24.44;49.69;100906.78;5053227;28;20503;-74
2022/06/10 05:47:55;;;;;;;2.92;0.80;;;;;;;24.44;49.30;100910.34;5052351;28;20048;-74
2022/06/10 05:50:33;;;;;;;2.63;1.10;;;;;;;24.45;49.33;100916.59;5053780;28;20053;-74
2022/06/10 05:53:02;;;;;;;3.00;1.00;;;;;;;24.45;49.36;100912.03;5052129;28;20056;-73
2022/06/10 05:55:31;;;;;;;2.40;1.02;;;;;;;24.44;49.35;100918.44;5053514;28;20412;-74
2022/06/10 05:58:06;;;;;;;3.38;1.42;;;;;;;24.44;49.47;100926.56;5053523;28;20056;-73
2022/06/10 06:00:33;;;;;;;3.72;1.10;;;;;;;24.44;49.64;100923.03;5053848;28;20049;-73
2022/06/10 06:03:01;;;;;;;2.88;1.05;;;;;;;24.45;49.45;100933.66;5052436;28;20048;-73
2022/06/10 06:05:28;;;;;;;3.80;1.10;;;;;;;24.44;49.54;100940.09;5053716;28;20044;-74
2022/06/10 06:07:56;;;;;;;2.95;0.80;;;;;;;24.45;49.49;100940.94;5053939;28;20053;-74
2022/06/10 06:10:26;;;;;;;1.90;1.00;;;;;;;24.45;49.81;100943.66;5053505;28;20396;-75
2022/06/10 06:12:54;;;;;;;4.25;1.20;;;;;;;24.44;49.84;100942.81;5052970;28;20484;-75
2022/06/10 06:15:22;;;;;;;2.35;0.95;;;;;;;24.45;49.70;100954.47;5051955;28;20049;-75
2022/06/10 06:17:51;;;;;;;2.88;1.25;;;;;;;24.45;49.80;100949.06;5053277;28;20056;-75
2022/06/10 06:20:21;;;;;;;2.53;1.00;;;;;;;24.45;49.93;100952.63;5054057;28;20495;-75
2022/06/10 06:22:48;;;;;;;2.00;0.90;;;;;;;24.45;49.52;100949.06;5053062;28;20049;-75
2022/06/10 06:25:17;;;;;;;3.60;1.10;;;;;;;24.45;49.55;100958.03;5053358;28;20056;-75
2022/06/10 06:27:48;;;;;;;2.35;0.90;;;;;;;24.45;49.59;100965.28;5052914;28;20045;-75
2022/06/10 06:30:20;;;;;;;4.15;1.15;;;;;;;24.46;49.56;100964.28;5053270;28;20507;-75
2022/06/10 06:32:48;;;;;;;4.30;0.85;;;;;;;24.45;49.85;100968.00;5053604;28;20052;-74
2022/06/10 06:35:15;;;;;;;3.28;1.10;;;;;;;24.45;49.82;100976.13;5053522;28;20049;-75
2022/06/10 06:37:43;;;;;;;8.13;1.15;;;;;;;24.46;50.03;100975.94;5052807;28;20396;-74
2022/06/10 06:40:11;;;;;;;3.60;1.52;;;;;;;24.46;50.13;100984.06;5052982;28;20052;-74
2022/06/10 06:42:39;;;;;;;5.25;1.10;;;;;;;24.46;49.79;100975.94;5052975;28;20060;-74
2022/06/10 06:45:08;;;;;;;3.47;1.10;;;;;;;24.45;48.08;100986.94;5053273;28;20397;-74
2022/06/10 06:47:51;;;;;;;3.42;1.00;;;;;;;24.42;46.25;100988.94;5052076;28;20056;-74
2022/06/10 06:50:23;;;;;;;3.72;1.08;;;;;;;24.39;46.48;100992.00;5053338;28;20392;-75
2022/06/10 06:52:52;;;;;;;3.67;1.00;;;;;;;24.38;45.77;100992.16;5053426;28;20465;-76
2022/06/10 06:55:20;;;;;;;5.70;1.10;;;;;;;24.37;46.14;100993.13;5052847;28;20290;-75
2022/06/10 06:57:49;;;;;;;1.80;0.98;;;;;;;24.35;44.56;100998.72;5072795;28;20045;-73
2022/06/10 07:00:17;;;;;;;4.13;1.45;;;;;;;24.31;44.15;101001.91;5077054;28;20045;-74
2022/06/10 07:02:45;;;;;;;2.15;1.00;;;;;;;24.27;43.91;100997.81;5077159;28;20056;-75
2022/06/10 07:05:13;;;;;;;5.13;0.88;;;;;;;24.24;43.71;101004.41;5077427;28;20048;-77
2022/06/10 07:07:41;;;;;;;3.20;1.20;;;;;;;24.23;43.67;101012.69;5077674;28;20040;-76
2022/06/10 07:10:13;;;;;;;3.13;1.08;;;;;;;24.20;43.08;100999.47;5077872;28;20059;-75
2022/06/10 07:12:40;;;;;;;3.47;0.98;;;;;;;24.18;43.39;101008.59;5076133;28;20049;-74
2022/06/10 07:15:09;;;;;;;4.53;1.10;;;;;;;24.13;43.18;101010.91;5076823;28;20040;-75
2022/06/10 07:17:37;;;;;;;2.22;0.80;;;;;;;24.11;43.27;101010.25;5076580;28;20056;-76
2022/06/10 07:20:05;;;;;;;2.95;1.10;;;;;;;24.10;43.59;101013.94;5076640;28;20048;-76
2022/06/10 07:22:33;;;;;;;3.30;1.10;;;;;;;24.10;43.54;101013.94;5076577;28;20376;-76
2022/06/10 07:25:00;;;;;;;2.25;0.90;;;;;;;24.09;43.57;101014.94;5076454;28;20041;-75
2022/06/10 07:27:28;;;;;;;1.95;0.88;;;;;;;24.08;42.73;101017.81;5076597;28;20048;-75
2022/06/10 07:30:06;;;;;;;3.00;1.00;;;;;;;24.06;42.63;101019.81;5075820;28;20484;-75
2022/06/10 07:32:34;;;;;;;1.27;0.70;;;;;;;24.06;42.76;101025.22;5075999;28;20056;-76
2022/06/10 07:35:01;;;;;;;3.63;1.00;;;;;;;24.03;42.48;101026.41;5076756;28;20041;-79
2022/06/10 07:37:29;;;;;;;4.50;1.52;;;;;;;24.03;42.77;101026.41;5076641;28;20037;-75
2022/06/10 07:39:57;;;;;;;3.38;1.00;;;;;;;24.02;42.97;101030.09;5076325;28;20423;-76
2022/06/10 07:42:24;;;;;;;6.80;1.65;;;;;;;24.02;43.42;101029.25;5076345;28;20059;-75
2022/06/10 07:44:52;;;;;;;5.60;1.23;;;;;;;24.04;44.42;101041.63;5076517;28;20048;-75
2022/06/10 07:47:19;;;;;;;1.98;1.00;;;;;;;24.07;45.00;101025.09;5075968;28;20060;-75
2022/06/10 07:49:46;;;;;;;1.50;0.93;;;;;;;24.11;45.33;101041.84;5076372;28;20510;-76
2022/06/10 07:52:15;;;;;;;3.03;1.20;;;;;;;24.14;45.84;101041.50;5074702;28;20048;-74
2022/06/10 07:54:42;;;;;;;2.53;1.58;;;;;;;24.18;45.74;101046.47;5076266;28;20486;-76
2022/06/10 07:57:11;;;;;;;2.58;1.17;;;;;;;24.22;45.82;101051.53;5074908;28;20060;-76
2022/06/10 07:59:42;;;;;;;2.55;1.10;;;;;;;24.24;46.14;101054.94;5074235;28;20060;-75
2022/06/10 08:02:09;;;;;;;2.47;1.15;;;;;;;24.27;45.93;101060.91;5075912;28;20067;-74
2022/06/10 08:04:37;;;;;;;4.30;1.33;;;;;;;24.24;42.05;101050.38;5076103;28;20044;-74
2022/06/10 08:07:04;;;;;;;5.53;1.20;;;;;;;24.21;41.86;101053.41;5075496;28;20055;-74
2022/06/10 08:09:38;;;;;;;4.68;1.38;;;;;;;24.19;41.93;101063.53;5074068;28;20049;-75
2022/06/10 08:12:06;;;;;;;5.00;2.00;;;;;;;24.17;42.46;101071.81;5074524;28;20097;-76
2022/06/10 08:14:33;;;;;;;4.28;1.88;;;;;;;24.15;42.30;101067.56;5074869;28;20048;-74
2022/06/10 08:17:04;;;;;;;4.10;1.50;;;;;;;24.14;42.25;101066.69;5074654;28;20044;-76
2022/06/10 08:19:32;;;;;;;3.90;1.35;;;;;;;24.12;42.24;101067.88;5075253;28;20044;-74
2022/06/10 08:24:46;;;;;;;4.40;1.30;;;;;;;24.11;41.96;101074.31;5075186;28;20044;-77
2022/06/10 08:27:13;;;;;;;4.45;1.42;;;;;;;24.09;42.11;101069.03;5074784;28;20047;-75
2022/06/10 08:29:40;;;;;;;2.75;1.40;;;;;;;24.10;41.48;101072.59;5074869;28;20053;-75
2022/06/10 08:32:08;;;;;;;2.85;1.15;;;;;;;24.08;41.11;101066.50;5075233;28;20388;-74
2022/06/10 08:34:36;;;;;;;4.60;1.13;;;;;;;24.08;41.33;101078.16;5075712;28;20048;-76
2022/06/10 08:37:04;;;;;;;2.92;1.25;;;;;;;24.08;41.60;101072.75;5075222;28;20396;-75
2022/06/10 08:39:31;;;;;;;2.95;1.30;;;;;;;24.09;41.68;101071.75;5073532;28;20075;-75
2022/06/10 08:42:10;;;;;;;2.88;1.10;;;;;;;24.09;41.02;101077.16;5074649;28;20053;-75
2022/06/10 08:44:46;;;;;;;4.55;1.02;;;;;;;24.10;40.88;101069.88;5074822;28;20490;-75
2022/06/10 08:47:22;;;;;;;2.83;1.08;;;;;;;24.12;40.98;101084.13;5074438;28;20048;-74
2022/06/10 08:50:12;;;;;;;3.53;1.65;;;;;;;24.12;40.16;101087.66;5074463;28;20060;-74
2022/06/10 08:53:13;;;;;;;3.17;1.15;;;;;;;24.14;40.04;101082.09;5074285;28;20051;-74
2022/06/10 08:56:08;;;;;;;2.35;1.30;;;;;;;24.15;40.12;101094.63;5074097;28;20052;-75
2022/06/10 08:58:54;;;;;;;3.13;1.20;;;;;;;24.15;39.94;101100.88;5073462;28;20044;-74
2022/06/10 09:01:23;;;;;;;2.85;1.10;;;;;;;24.15;40.46;101100.88;5072956;28;20059;-74
2022/06/10 09:04:03;;;;;;;3.05;0.90;;;;;;;24.17;40.49;101112.38;5074665;28;20052;-75
2022/06/10 09:06:51;;;;;;;4.38;1.00;;;;;;;24.17;40.85;101104.25;5073429;28;20052;-77
2022/06/10 09:09:22;;;;;;;3.95;1.30;;;;;;;24.18;40.78;101106.00;5074055;28;20044;-75
2022/06/10 09:11:58;;;;;;;2.80;1.00;;;;;;;24.18;40.86;101107.81;5074569;28;20404;-75
2022/06/10 09:14:27;;;;;;;2.60;1.10;;;;;;;24.19;40.88;101112.25;5074414;28;20044;-75
2022/06/10 09:17:11;;;;;;;4.47;1.40;;;;;;;24.19;41.23;101106.84;5073779;28;20400;-74
2022/06/10 09:20:16;;;;;;;5.63;1.13;;;;;;;24.21;41.11;101109.38;5071835;28;20061;-75
2022/06/10 09:23:06;;;;;;;2.15;0.90;;;;;;;24.22;41.40;101116.47;5073950;28;20044;-75
2022/06/10 09:25:42;;;;;;;1.50;0.70;;;;;;;24.23;41.01;101120.91;5072575;28;20036;-75
2022/06/10 09:28:10;;;;;;;1.30;0.70;;;;;;;24.22;40.42;101114.59;5073834;28;20052;-76
2022/06/10 09:30:51;;;;;;;4.47;1.23;;;;;;;24.23;39.88;101115.47;5074175;28;20052;-74
2022/06/10 09:33:22;;;;;;;4.28;1.05;;;;;;;24.24;39.71;101111.75;5073875;28;20062;-76
2022/06/10 09:36:09;;;;;;;5.05;1.25;;;;;;;24.24;40.36;101117.19;5073950;28;20483;-75
2022/06/10 09:39:02;;;;;;;3.45;1.33;;;;;;;24.24;39.77;101103.66;5073757;28;20499;-75
2022/06/10 09:41:56;;;;;;;2.25;1.00;;;;;;;24.25;40.30;101105.34;5073562;28;20064;-76
2022/06/10 09:44:23;;;;;;;2.83;1.10;;;;;;;24.25;40.46;101105.34;5072271;28;20048;-74
2022/06/10 09:47:12;;;;;;;1.85;0.85;;;;;;;24.26;41.18;101110.59;5073365;28;20044;-74
2022/06/10 09:49:48;;;;;;;2.95;0.90;;;;;;;24.27;41.39;101116.88;5073766;28;20130;-75
2022/06/10 09:52:21;;;;;;;2.53;0.88;;;;;;;24.28;41.75;101116.69;5072104;28;20403;-76
2022/06/10 09:55:20;;;;;;;4.88;1.10;;;;;;;24.29;41.82;101117.53;5073191;28;20067;-76
2022/06/10 09:58:27;;;;;;;2.55;0.90;;;;;;;24.31;42.07;101118.25;5055703;28;20099;-75
2022/06/10 10:01:36;;;;;;;2.30;0.90;;;;;;;24.32;42.48;101122.66;5071425;28;20071;-75
2022/06/10 10:04:30;;;;;;;1.80;0.90;;;;;;;24.33;42.18;101116.22;5011790;28;20062;-75
2022/06/10 10:07:23;;;;;;;2.50;0.70;;;;;;;24.33;41.51;101116.22;5009644;28;20441;-75
2022/06/10 10:10:00;;;;;;;5.47;1.20;;;;;;;24.33;40.36;101118.94;5011758;28;20064;-73
2022/06/10 10:12:37;;;;;;;4.45;0.93;;;;;;;24.34;40.93;101123.31;5011654;28;20054;-74
2022/06/10 10:15:35;;;;;;;4.18;1.00;;;;;;;24.34;42.19;101109.78;5011317;28;20062;-74
2022/06/10 10:18:22;;;;;;;4.32;1.10;;;;;;;24.38;41.26;101127.44;5011762;28;20572;-74
2022/06/10 10:21:25;;;;;;;1.40;0.77;;;;;;;24.39;42.22;101113.78;5011200;28;20057;-74
2022/06/10 10:23:55;;;;;;;2.35;0.82;;;;;;;24.41;42.51;101111.75;5010729;28;20058;-75
2022/06/10 10:26:30;;;;;;;2.10;1.05;;;;;;;24.41;42.32;101114.44;5012510;28;20053;-74
2022/06/10 10:29:16;;;;;;;3.50;1.05;;;;;;;24.42;42.74;101118.84;5012291;28;20064;-73
2022/06/10 10:31:54;;;;;;;1.52;1.00;;;;;;;24.44;42.38;101112.44;5011524;28;20065;-73
2022/06/10 10:34:31;;;;;;;2.92;0.90;;;;;;;24.45;42.86;101112.28;5031053;28;20048;-72
2022/06/10 10:37:02;;;;;;;2.70;0.90;;;;;;;24.47;41.44;101115.69;5077001;28;20408;-74
2022/06/10 10:39:32;;;;;;;1.50;0.77;;;;;;;24.48;42.21;101113.84;5076605;28;20041;-75
2022/06/10 10:42:23;;;;;;;2.28;0.80;;;;;;;24.49;41.17;101118.22;5078047;28;20049;-76
2022/06/10 10:45:17;;;;;;;2.60;1.08;;;;;;;24.50;40.97;101109.09;5077379;28;20045;-74
2022/06/10 10:47:56;;;;;;;3.17;0.75;;;;;;;24.50;40.72;101109.94;5076602;28;20060;-75
2022/06/10 10:50:35;;;;;;;1.73;0.82;;;;;;;24.49;39.13;101108.25;5077035;28;20052;-74
2022/06/10 10:53:20;;;;;;;3.25;0.98;;;;;;;24.51;40.03;101108.94;5077634;28;20048;-73
2022/06/10 10:55:55;;;;;;;1.50;0.80;;;;;;;24.52;41.25;101109.81;5077140;28;20048;-73
2022/06/10 10:58:36;;;;;;;3.38;0.80;;;;;;;24.51;40.78;101100.84;5078106;28;20384;-73
2022/06/10 11:01:07;;;;;;;1.33;0.73;;;;;;;24.53;41.12;101106.91;5075876;28;20059;-74
2022/06/10 11:03:45;;;;;;;2.45;0.98;;;;;;;24.54;40.89;101105.91;5075888;28;20052;-74
2022/06/10 11:06:24;;;;;;;3.13;0.80;;;;;;;24.55;39.69;101107.63;5077162;28;20049;-74
2022/06/10 11:09:00;;;;;;;3.42;0.80;;;;;;;24.57;40.26;101111.00;5077970;28;20412;-76
2022/06/10 11:11:35;;;;;;;;;;;;;;;24.58;38.32;101107.28;5076537;28;20052;-75
2022/06/10 11:14:21;;;;;;;1.55;0.80;;;;;;;24.64;38.86;101105.81;5107713;28;19921;-74
2022/06/10 11:16:59;;;;;;;1.77;0.80;;;;;;;24.64;39.33;101111.22;5111180;28;20404;-76
2022/06/10 11:19:32;;;;;;;2.58;1.08;;;;;;;24.66;38.86;101109.19;5077864;28;20044;-74
2022/06/10 11:22:04;;;;;;;2.53;0.80;;;;;;;24.65;38.55;101108.34;5077106;28;20049;-74
2022/06/10 11:24:44;;;;;;;2.10;0.70;;;;;;;24.66;38.54;101110.03;5077371;28;20373;-75
2022/06/10 11:27:23;;;;;;;2.42;0.93;;;;;;;24.66;38.87;101104.63;5077150;28;20049;-75
2022/06/10 11:30:10;;;;;;;1.42;0.70;;;;;;;24.66;40.98;101104.63;5075989;28;20045;-74
2022/06/10 11:32:47;;;;;;;3.50;0.88;;;;;;;24.64;42.01;101105.81;5076197;28;20398;-74
2022/06/10 11:35:31;;;;;;;1.30;0.73;;;;;;;24.63;44.70;101110.38;5076405;28;20067;-75
2022/06/10 11:38:03;;;;;;;1.52;0.82;;;;;;;24.61;44.03;101108.84;5076735;28;20052;-75
2022/06/10 11:40:54;;;;;;;1.20;0.85;;;;;;;24.58;44.75;101106.44;5077061;28;20045;-74
2022/06/10 11:43:25;;;;;;;2.30;1.02;;;;;;;24.56;45.49;101103.91;5076671;28;20049;-86
2022/06/10 11:46:05;;;;;;;3.33;0.70;;;;;;;24.55;44.67;101095.94;5108423;28;20475;-75
2022/06/10 11:48:33;;;;;;;3.17;0.82;;;;;;;24.56;44.46;101100.34;5075959;28;20041;-77
2022/06/10 11:51:12;;;;;;;1.52;0.90;;;;;;;24.55;45.68;101099.50;5076581;28;20056;-78
2022/06/10 11:53:45;;;;;;;2.03;0.80;;;;;;;24.56;44.61;101100.34;5075794;28;20059;-78
2022/06/10 12:02:08;;;;;;;2.08;0.75;;;;;;;24.58;38.51;101095.63;5076864;28;20052;-84
2022/06/10 12:04:42;;;;;;;1.90;0.80;;;;;;;24.63;40.07;101093.25;5077001;28;20388;-76
2022/06/10 12:07:15;;;;;;;1.48;0.63;;;;;;;24.64;42.04;101098.53;5076253;28;20063;-74
2022/06/10 12:09:50;;;;;;;1.85;0.80;;;;;;;24.64;43.50;101092.28;5076507;28;20052;-72
2022/06/10 12:12:30;;;;;;;1.95;0.93;;;;;;;24.63;43.27;101099.56;5075794;28;20404;-75
2022/06/10 12:15:00;;;;;;;2.38;0.93;;;;;;;24.63;42.89;101102.25;5075527;28;20040;-75